createdAt,value
2017-12-30T00:08:24.482Z,8
2017-12-30T00:18:24.443Z,7
2017-12-30T00:28:24.371Z,7
2017-12-30T00:38:24.375Z,6
2017-12-30T00:48:38.587Z,6
2017-12-30T00:58:24.383Z,8
2017-12-30T01:08:24.419Z,6
2017-12-30T01:18:24.422Z,6
2017-12-30T01:28:24.434Z,5
2017-12-30T01:38:24.367Z,5
2017-12-30T01:48:24.467Z,4
2017-12-30T01:58:24.427Z,3
2017-12-30T02:08:24.409Z,3
2017-12-30T02:18:24.506Z,5
2017-12-30T02:28:24.403Z,3
2017-12-30T02:38:24.438Z,4
2017-12-30T02:48:24.415Z,3
2017-12-30T02:58:24.475Z,3
2017-12-30T03:08:24.770Z,3
2017-12-30T03:18:24.519Z,3
2017-12-30T03:28:24.484Z,3
2017-12-30T03:38:24.558Z,3
2017-12-30T03:48:24.440Z,3
2017-12-30T03:58:24.545Z,3
2017-12-30T04:08:24.522Z,4
2017-12-30T04:18:24.475Z,3
2017-12-30T04:28:24.535Z,3
2017-12-30T04:38:24.514Z,3
2017-12-30T04:48:24.578Z,3
2017-12-30T04:58:24.529Z,4
2017-12-30T05:08:24.670Z,3
2017-12-30T05:18:24.584Z,2
2017-12-30T05:28:24.647Z,3
2017-12-30T05:38:24.538Z,3
2017-12-30T05:48:24.684Z,4
2017-12-30T05:58:24.606Z,5
2017-12-30T06:08:24.715Z,3
2017-12-30T06:18:24.635Z,3
2017-12-30T06:28:24.593Z,3
2017-12-30T06:38:24.654Z,3
2017-12-30T06:48:24.606Z,2
2017-12-30T06:58:24.663Z,3
2017-12-30T07:08:24.660Z,4
2017-12-30T07:18:24.703Z,4
2017-12-30T07:28:24.693Z,3
2017-12-30T07:38:24.714Z,3
2017-12-30T07:48:24.693Z,4
2017-12-30T07:58:24.706Z,3
2017-12-30T08:08:24.744Z,3
2017-12-30T08:18:24.763Z,3
2017-12-30T08:28:24.759Z,2
2017-12-30T08:38:24.762Z,2
2017-12-30T08:48:24.763Z,2
2017-12-30T08:58:24.721Z,2
2017-12-30T09:08:24.776Z,2
2017-12-30T09:18:24.743Z,1
2017-12-30T09:28:24.810Z,1
2017-12-30T09:38:24.787Z,1
2017-12-30T09:48:24.864Z,2
2017-12-30T09:58:24.795Z,1
2017-12-30T10:08:27.558Z,1
2017-12-30T10:18:24.772Z,1
2017-12-30T10:28:24.932Z,1
2017-12-30T10:38:25.092Z,1
2017-12-30T10:48:24.856Z,1
2017-12-30T10:58:24.909Z,1
2017-12-30T11:08:24.970Z,2
2017-12-30T11:18:24.928Z,2
2017-12-30T11:28:24.875Z,2
2017-12-30T11:38:25.042Z,4
2017-12-30T11:48:25.014Z,5
2017-12-30T11:58:25.040Z,9
2017-12-30T12:08:25.044Z,11
2017-12-30T12:18:24.972Z,15
2017-12-30T12:28:25.005Z,13
2017-12-30T12:38:24.941Z,12
2017-12-30T12:48:25.539Z,11
2017-12-30T12:58:25.104Z,11
2017-12-30T13:08:24.956Z,10
2017-12-30T13:18:24.960Z,10
2017-12-30T13:28:24.996Z,11
2017-12-30T13:38:25.033Z,9
2017-12-30T13:48:25.002Z,8
2017-12-30T13:58:25.026Z,9
2017-12-30T14:08:25.013Z,9
2017-12-30T14:18:25.017Z,8
2017-12-30T14:28:25.058Z,8
2017-12-30T14:38:25.081Z,10
2017-12-30T14:48:25.043Z,8
2017-12-30T14:58:25.043Z,7
2017-12-30T15:08:25.078Z,8
2017-12-30T15:18:25.038Z,9
2017-12-30T15:28:25.751Z,10
2017-12-30T15:38:25.047Z,9
2017-12-30T15:48:25.040Z,8
2017-12-30T15:58:25.075Z,8
2017-12-30T16:08:25.126Z,7
2017-12-30T16:18:25.167Z,9
2017-12-30T16:28:25.242Z,8
2017-12-30T16:38:25.088Z,7
2017-12-30T16:48:25.075Z,8
2017-12-30T16:58:25.056Z,7
2017-12-30T17:08:25.213Z,8
2017-12-30T17:18:25.158Z,8
2017-12-30T17:28:25.136Z,8
2017-12-30T17:38:25.184Z,8
2017-12-30T17:48:25.299Z,8
2017-12-30T17:58:25.798Z,7
2017-12-30T18:08:25.178Z,8
2017-12-30T18:18:25.229Z,9
2017-12-30T18:28:25.264Z,9
2017-12-30T18:38:25.238Z,9
2017-12-30T18:48:25.245Z,9
2017-12-30T18:58:25.302Z,8
2017-12-30T19:08:25.269Z,8
2017-12-30T19:18:25.349Z,9
2017-12-30T19:28:25.454Z,10
2017-12-30T19:38:36.331Z,7
2017-12-30T19:48:25.589Z,10
2017-12-30T19:58:27.727Z,6
2017-12-30T20:08:26.002Z,7
2017-12-30T20:18:26.139Z,8
2017-12-30T20:28:26.941Z,6
2017-12-30T20:38:26.671Z,7
2017-12-30T20:48:25.801Z,6
2017-12-30T20:58:26.445Z,6
2017-12-30T21:08:25.646Z,6
2017-12-30T21:18:26.289Z,7
2017-12-30T21:28:26.371Z,7
2017-12-30T21:38:26.619Z,6
2017-12-30T21:48:26.174Z,8
2017-12-30T21:58:25.468Z,7
2017-12-30T22:08:25.442Z,8
2017-12-30T22:18:25.438Z,7
2017-12-30T22:28:25.544Z,9
2017-12-30T22:38:25.397Z,9
2017-12-30T22:48:25.420Z,8
2017-12-30T22:58:25.444Z,9
2017-12-30T23:08:25.472Z,10
2017-12-30T23:18:25.558Z,9
2017-12-30T23:28:25.452Z,9
2017-12-30T23:38:25.465Z,9
2017-12-30T23:48:25.549Z,10
2017-12-30T23:58:25.523Z,8
